Terminal Aerodrome Forecast
Issued by NWS Cleveland, OH

Home | Current Version | Previous Version | Graphics & Text | Print | Product List | Glossary On
Versions: 1 2 3 4 5 6 7 8 9 10 11 12 13 14 15 16 17 18 19 20 21 22 23 24 25 26
000
FTUS41 KCLE 240528
TAFERI
TAF
KERI 240528Z 2406/2506 17012KT P6SM OVC100
     FM240700 17010G20KT P6SM -SHRA OVC060
     FM241100 21015G25KT P6SM OVC050 WS020/24050KT
     FM241700 23015G25KT P6SM OVC250
     FM250000 23010KT P6SM OVC035
     FM250300 23010KT P6SM OVC025=

USA.gov is the U.S. government's official web portal to all federal, state and local government web resources and services.